Time;durP1;ratioP1;P1;durP2;ratioP2;P2;SDS_P1;SDS_P2;PMS_P1;PMS_P2;Temp;Humidity;BMP_temperature;BMP_pressure;BME280_temperature;BME280_humidity;BME280_pressure;Samples;Min_cycle;Max_cycle;Signal;HPM_P1;HPM_P2
2023/12/20 00:01:26;;;;;;;2.87;2.67;;;;;;;6.93;100.00;100417.44;5074459;28;20175;-76
2023/12/20 00:03:51;;;;;;;3.17;2.87;;;;;;;6.93;100.00;100412.28;5077138;28;20184;-78
2023/12/20 00:06:17;;;;;;;4.23;3.70;;;;;;;6.93;100.00;100414.00;5075806;28;20190;-77
2023/12/20 00:08:42;;;;;;;3.40;3.10;;;;;;;6.85;100.00;100404.50;5074287;28;20202;-77
2023/12/20 00:11:07;;;;;;;3.17;2.87;;;;;;;6.82;100.00;100404.47;5077918;28;20597;-77
2023/12/20 00:13:33;;;;;;;3.53;3.23;;;;;;;6.76;100.00;100414.72;5073278;28;20198;-77
2023/12/20 00:15:58;;;;;;;3.47;3.17;;;;;;;6.73;100.00;100401.84;5076044;28;20195;-77
2023/12/20 00:18:23;;;;;;;3.30;3.00;;;;;;;6.70;100.00;100414.66;5077590;28;20644;-76
2023/12/20 00:20:49;;;;;;;3.43;3.13;;;;;;;6.69;100.00;100406.09;5077359;28;20980;-77
2023/12/20 00:23:14;;;;;;;3.50;3.17;;;;;;;6.71;100.00;100414.69;5076426;28;20191;-78
2023/12/20 00:25:39;;;;;;;3.63;3.33;;;;;;;6.75;100.00;100401.84;5078808;28;20198;-78
2023/12/20 00:28:05;;;;;;;3.47;3.17;;;;;;;6.69;100.00;100406.09;5076596;28;20203;-77
2023/12/20 00:30:30;;;;;;;3.63;3.27;;;;;;;6.71;100.00;100411.25;5068134;28;20186;-78
2023/12/20 00:32:56;;;;;;;3.50;3.20;;;;;;;6.71;100.00;100408.66;5076704;28;20688;-77
2023/12/20 00:35:21;;;;;;;3.73;3.43;;;;;;;6.69;100.00;100400.06;5078231;28;20229;-78
2023/12/20 00:37:46;;;;;;;4.00;3.60;;;;;;;6.68;100.00;100403.50;5078998;28;20219;-77
2023/12/20 00:40:12;;;;;;;3.40;3.10;;;;;;;6.67;100.00;100407.78;5076715;28;20621;-77
2023/12/20 00:42:37;;;;;;;3.10;2.90;;;;;;;6.67;100.00;100414.63;5078474;28;20520;-77
2023/12/20 00:45:04;;;;;;;3.50;3.20;;;;;;;6.65;100.00;100421.50;5076376;28;20682;-77
2023/12/20 00:47:30;;;;;;;3.47;3.13;;;;;;;6.65;100.00;100417.19;5065966;28;20214;-77
2023/12/20 00:49:55;;;;;;;3.20;2.90;;;;;;;6.66;100.00;100418.91;5076618;28;20186;-78
2023/12/20 00:52:22;;;;;;;3.10;2.80;;;;;;;6.64;100.00;100418.03;5077463;28;20535;-77
2023/12/20 00:54:48;;;;;;;3.63;3.20;;;;;;;6.61;100.00;100427.44;5078243;28;21849;-77
2023/12/20 00:57:13;;;;;;;3.40;3.10;;;;;;;6.59;100.00;100429.13;5077538;28;20226;-77
2023/12/20 00:59:38;;;;;;;3.17;2.87;;;;;;;6.55;100.00;100426.53;5076619;28;20193;-77
2023/12/20 01:02:04;;;;;;;2.90;2.60;;;;;;;6.55;100.00;100434.25;5076275;28;21112;-77
2023/12/20 01:04:32;;;;;;;3.80;3.13;;;;;;;6.58;100.00;100429.97;5077175;28;20752;-78
2023/12/20 01:06:57;;;;;;;3.27;2.97;;;;;;;6.60;100.00;100436.00;5073105;28;20206;-77
2023/12/20 01:09:26;;;;;;;3.43;3.13;;;;;;;6.52;100.00;100428.22;5076683;28;20205;-76
2023/12/20 01:11:52;;;;;;;2.80;2.60;;;;;;;6.50;100.00;100429.91;5076733;28;20207;-77
2023/12/20 01:14:17;;;;;;;3.60;3.30;;;;;;;6.50;100.00;100425.63;5077684;28;20198;-76
2023/12/20 01:16:42;;;;;;;3.13;2.83;;;;;;;6.53;100.00;100419.66;5074043;28;20193;-78
2023/12/20 01:19:08;;;;;;;3.27;2.93;;;;;;;6.54;100.00;100429.94;5078330;28;20244;-78
2023/12/20 01:21:33;;;;;;;3.47;3.17;;;;;;;6.58;100.00;100412.81;5076051;28;20271;-76
2023/12/20 01:23:58;;;;;;;3.47;2.97;;;;;;;6.58;100.00;100423.13;5074063;28;20281;-76
2023/12/20 01:26:24;;;;;;;2.93;2.73;;;;;;;6.59;100.00;100421.41;5075361;28;20207;-77
2023/12/20 01:28:49;;;;;;;3.23;2.93;;;;;;;6.60;100.00;100413.72;5078345;28;20238;-77
2023/12/20 01:31:14;;;;;;;3.47;3.17;;;;;;;6.61;100.00;100412.88;5079284;28;20212;-78
2023/12/20 01:33:40;;;;;;;3.27;2.97;;;;;;;6.64;100.00;100404.34;5075812;28;20223;-78
2023/12/20 01:36:05;;;;;;;3.43;3.00;;;;;;;6.63;100.00;100395.75;5077433;28;20756;-76
2023/12/20 01:38:30;;;;;;;2.90;2.70;;;;;;;6.61;100.00;100400.00;5074068;28;20636;-77
2023/12/20 01:40:56;;;;;;;2.93;2.63;;;;;;;6.62;100.00;100395.75;5076943;28;20187;-78
2023/12/20 01:43:21;;;;;;;3.40;3.10;;;;;;;6.59;100.00;100404.28;5077949;28;20195;-77
2023/12/20 01:45:47;;;;;;;2.57;2.37;;;;;;;6.54;100.00;100405.97;5074138;28;20192;-77
2023/12/20 01:48:16;;;;;;;2.83;2.57;;;;;;;6.54;100.00;100404.22;5081189;28;20687;-78
2023/12/20 01:50:43;;;;;;;2.67;2.47;;;;;;;6.53;100.00;100402.50;5076682;28;20179;-77
2023/12/20 01:53:10;;;;;;;3.27;2.63;;;;;;;6.55;100.00;100410.25;5080887;28;20216;-77
2023/12/20 01:55:39;;;;;;;2.77;2.47;;;;;;;6.58;100.00;100411.97;5075939;28;20291;-77
2023/12/20 01:58:05;;;;;;;3.43;3.07;;;;;;;6.59;100.00;100406.00;5074622;28;20205;-78
2023/12/20 02:00:31;;;;;;;3.10;2.70;;;;;;;6.61;100.00;100402.56;5076579;28;20246;-77
2023/12/20 02:03:00;;;;;;;3.40;3.10;;;;;;;6.60;100.00;100397.44;5082907;28;20645;-77
2023/12/20 02:05:27;;;;;;;3.43;2.67;;;;;;;6.56;100.00;100399.97;5078523;28;20238;-76
2023/12/20 02:07:53;;;;;;;2.67;2.47;;;;;;;6.51;100.00;100401.63;5077216;28;20700;-77
2023/12/20 02:10:18;;;;;;;2.60;2.40;;;;;;;6.50;100.00;100399.94;5077150;28;20191;-76
2023/12/20 02:12:43;;;;;;;3.13;2.87;;;;;;;6.50;100.00;100393.91;5079641;28;20259;-77
2023/12/20 02:15:09;;;;;;;3.23;2.87;;;;;;;6.49;100.00;100403.34;5082312;28;20235;-77
2023/12/20 02:17:38;;;;;;;3.23;2.93;;;;;;;6.47;100.00;100397.31;5079897;28;20707;-77
2023/12/20 02:20:03;;;;;;;2.63;2.40;;;;;;;6.44;100.00;100397.28;5077903;28;20192;-77
2023/12/20 02:22:29;;;;;;;3.03;2.73;;;;;;;6.46;100.00;100395.59;5080916;28;20188;-77
2023/12/20 02:24:55;;;;;;;3.17;2.97;;;;;;;6.53;100.00;100397.38;5076567;28;20183;-77
2023/12/20 02:27:22;;;;;;;2.70;2.50;;;;;;;6.47;100.00;100401.59;5075778;28;20203;-76
2023/12/20 02:29:48;;;;;;;2.87;2.50;;;;;;;6.46;100.00;100394.72;5080004;28;21098;-77
2023/12/20 02:32:13;;;;;;;2.90;2.50;;;;;;;6.48;100.00;100396.47;5074298;28;20217;-77
2023/12/20 02:34:39;;;;;;;2.70;2.50;;;;;;;6.46;100.00;100393.03;5081768;28;20217;-77
2023/12/20 02:37:04;;;;;;;2.60;2.40;;;;;;;6.50;100.00;100409.34;5079095;28;20184;-76
2023/12/20 02:39:30;;;;;;;3.27;2.60;;;;;;;6.54;100.00;100404.22;5080471;28;20245;-78
2023/12/20 02:41:55;;;;;;;2.90;2.70;;;;;;;6.58;100.00;100394.81;5080785;28;20176;-77
2023/12/20 02:44:20;;;;;;;2.83;2.63;;;;;;;6.54;100.00;100406.81;5082580;28;20235;-77
2023/12/20 02:46:46;;;;;;;2.90;2.60;;;;;;;6.51;100.00;100411.06;5082400;28;20216;-78
2023/12/20 02:49:11;;;;;;;3.43;3.03;;;;;;;6.51;100.00;100414.47;5077679;28;20227;-76
2023/12/20 02:51:38;;;;;;;4.03;2.90;;;;;;;6.51;100.00;100417.06;5078486;28;20256;-77
2023/12/20 02:54:04;;;;;;;3.20;2.47;;;;;;;6.48;100.00;100422.19;5078208;28;20202;-77
2023/12/20 02:56:29;;;;;;;3.20;2.90;;;;;;;6.48;100.00;100424.75;5079228;28;20677;-77
2023/12/20 02:58:55;;;;;;;3.13;2.53;;;;;;;6.48;100.00;100429.91;5078380;28;20222;-77
2023/12/20 03:01:20;;;;;;;2.57;2.37;;;;;;;6.52;100.00;100426.50;5076133;28;20177;-76
2023/12/20 03:03:45;;;;;;;2.70;2.50;;;;;;;6.54;100.00;100429.09;5069099;28;20183;-77
2023/12/20 03:06:10;;;;;;;2.87;2.53;;;;;;;6.55;100.00;100429.09;5073491;28;20293;-76
2023/12/20 03:08:36;;;;;;;2.80;2.50;;;;;;;6.58;100.00;100438.53;5073099;28;20258;-77
2023/12/20 03:11:02;;;;;;;3.33;3.00;;;;;;;6.59;100.00;100435.13;5074936;28;20211;-76
2023/12/20 03:13:27;;;;;;;2.93;2.73;;;;;;;6.55;100.00;100452.25;5086960;28;20191;-77
2023/12/20 03:15:52;;;;;;;3.10;2.77;;;;;;;6.56;100.00;100450.56;5080116;28;20182;-78
2023/12/20 03:18:18;;;;;;;3.27;2.97;;;;;;;6.55;100.00;100441.97;5076403;28;20575;-78
2023/12/20 03:20:43;;;;;;;2.77;2.57;;;;;;;6.55;100.00;100438.53;5079523;28;20207;-77
2023/12/20 03:23:09;;;;;;;3.23;2.93;;;;;;;6.55;100.00;100428.25;5076682;28;20175;-76
2023/12/20 03:25:34;;;;;;;3.13;2.90;;;;;;;6.56;100.00;100414.56;5078923;28;20568;-77
2023/12/20 03:28:00;;;;;;;3.00;2.80;;;;;;;6.55;100.00;100420.53;5076981;28;20259;-77
2023/12/20 03:30:25;;;;;;;4.37;3.53;;;;;;;6.50;100.00;100429.91;5078380;28;20908;-76
2023/12/20 03:32:50;;;;;;;3.10;2.90;;;;;;;6.47;100.00;100432.44;5078623;28;20209;-78
2023/12/20 03:35:16;;;;;;;2.93;2.73;;;;;;;6.46;100.00;100429.03;5080029;28;20222;-77
2023/12/20 03:37:41;;;;;;;2.80;2.60;;;;;;;6.43;100.00;100433.28;5076425;28;20211;-76
2023/12/20 03:40:07;;;;;;;2.87;2.67;;;;;;;6.43;100.00;100434.13;5075442;28;20197;-76
2023/12/20 03:42:32;;;;;;;2.40;2.30;;;;;;;6.43;100.00;100428.13;5077209;28;20207;-78
2023/12/20 03:44:57;;;;;;;2.47;2.27;;;;;;;6.49;100.00;100433.31;5077907;28;20675;-77
2023/12/20 03:47:23;;;;;;;2.87;2.67;;;;;;;6.44;100.00;100432.41;5077878;28;20746;-77
2023/12/20 03:49:48;;;;;;;2.60;2.40;;;;;;;6.40;100.00;100434.09;5076861;28;20199;-76
2023/12/20 03:52:13;;;;;;;2.50;2.30;;;;;;;6.43;100.00;100448.69;5079700;28;20311;-78
2023/12/20 03:54:42;;;;;;;2.50;2.30;;;;;;;6.44;100.00;100437.53;5075054;28;20191;-77
2023/12/20 03:57:07;;;;;;;2.53;2.33;;;;;;;6.43;100.00;100436.69;5075743;28;20200;-77
2023/12/20 03:59:37;;;;;;;2.93;2.73;;;;;;;6.42;100.00;100452.13;5078062;28;20193;-77
2023/12/20 04:02:02;;;;;;;3.17;2.30;;;;;;;6.41;100.00;100453.81;5078803;28;20283;-77
2023/12/20 04:04:28;;;;;;;2.53;2.33;;;;;;;6.42;100.00;100446.97;5074357;28;20283;-77
2023/12/20 04:06:53;;;;;;;2.60;2.40;;;;;;;6.45;100.00;100436.69;5077409;28;20203;-76
2023/12/20 04:09:18;;;;;;;2.60;2.40;;;;;;;6.45;100.00;100447.88;5077164;28;20192;-78
2023/12/20 04:11:43;;;;;;;2.90;2.10;;;;;;;6.43;100.00;100459.00;5075000;28;20777;-77
2023/12/20 04:14:10;;;;;;;2.47;2.27;;;;;;;6.47;100.00;100450.44;5073185;28;20202;-77
2023/12/20 04:16:35;;;;;;;2.47;2.27;;;;;;;6.47;100.00;100448.75;5080499;28;20279;-78
2023/12/20 04:19:00;;;;;;;2.33;1.90;;;;;;;6.49;100.00;100457.34;5078641;28;20298;-78
2023/12/20 04:21:26;;;;;;;2.83;2.30;;;;;;;6.48;100.00;100450.47;5077986;28;20194;-78
2023/12/20 04:23:51;;;;;;;2.30;2.10;;;;;;;6.47;100.00;100456.47;5076915;28;20214;-77
2023/12/20 04:26:16;;;;;;;2.43;2.10;;;;;;;6.48;100.00;100450.47;5078390;28;20266;-78
2023/12/20 04:28:42;;;;;;;2.30;2.10;;;;;;;6.50;100.00;100450.47;5076106;28;20216;-78
2023/12/20 04:31:07;;;;;;;2.80;2.40;;;;;;;6.53;100.00;100459.06;5074733;28;20255;-78
2023/12/20 04:33:33;;;;;;;2.47;2.17;;;;;;;6.51;100.00;100467.63;5081372;28;20196;-77
2023/12/20 04:35:58;;;;;;;2.47;2.27;;;;;;;6.54;100.00;100468.50;5078866;28;20205;-77
2023/12/20 04:38:23;;;;;;;2.50;2.30;;;;;;;6.54;100.00;100476.22;5078820;28;20211;-76
2023/12/20 04:40:49;;;;;;;2.93;2.67;;;;;;;6.52;100.00;100474.50;5080943;28;20304;-78
2023/12/20 04:43:14;;;;;;;2.93;2.53;;;;;;;6.53;100.00;100478.78;5078380;28;20196;-77
2023/12/20 04:45:40;;;;;;;3.00;2.70;;;;;;;6.49;100.00;100474.47;5078011;28;20213;-76
2023/12/20 04:48:05;;;;;;;3.27;2.97;;;;;;;6.53;100.00;100477.06;5069403;28;20210;-76
2023/12/20 04:50:31;;;;;;;2.57;2.37;;;;;;;6.50;100.00;100479.63;5080820;28;20685;-77
2023/12/20 04:52:56;;;;;;;3.10;2.80;;;;;;;6.53;100.00;100474.50;5081646;28;20227;-77
2023/12/20 04:55:22;;;;;;;2.77;2.57;;;;;;;6.51;100.00;100471.03;5080104;28;20252;-77
2023/12/20 04:57:50;;;;;;;3.67;3.37;;;;;;;6.52;100.00;100477.91;5080395;28;20758;-78
2023/12/20 05:00:16;;;;;;;3.17;2.87;;;;;;;6.54;100.00;100480.53;5082440;28;20660;-77
2023/12/20 05:02:41;;;;;;;3.17;2.87;;;;;;;6.55;100.00;100487.41;5076347;28;20204;-76
2023/12/20 05:05:07;;;;;;;3.10;2.50;;;;;;;6.52;100.00;100487.34;5072895;28;20202;-78
2023/12/20 05:07:32;;;;;;;2.97;2.77;;;;;;;6.49;100.00;100482.16;5073542;28;20215;-77
2023/12/20 05:09:58;;;;;;;3.40;2.90;;;;;;;6.52;100.00;100489.94;5076485;28;20194;-77
2023/12/20 05:12:24;;;;;;;2.97;2.77;;;;;;;6.52;100.00;100493.34;5078684;28;20221;-77
2023/12/20 05:14:49;;;;;;;3.10;2.90;;;;;;;6.54;100.00;100493.38;5080318;28;20187;-78
2023/12/20 05:17:15;;;;;;;2.57;2.37;;;;;;;6.51;100.00;100501.06;5080885;28;20231;-77
2023/12/20 05:19:40;;;;;;;3.23;2.93;;;;;;;6.54;100.00;100495.94;5079306;28;20207;-77
2023/12/20 05:22:05;;;;;;;2.87;2.67;;;;;;;6.56;100.00;100489.97;5071913;28;20289;-77
2023/12/20 05:24:31;;;;;;;2.47;2.27;;;;;;;6.54;100.00;100499.38;5078123;28;20186;-77
2023/12/20 05:26:56;;;;;;;2.97;2.73;;;;;;;6.55;100.00;100503.66;5079829;28;20199;-78
2023/12/20 05:29:21;;;;;;;2.90;2.70;;;;;;;6.56;100.00;100499.41;5081933;28;20701;-77
2023/12/20 05:31:47;;;;;;;3.87;3.00;;;;;;;6.58;100.00;100507.97;5075286;28;20301;-77
2023/12/20 05:34:12;;;;;;;3.73;2.80;;;;;;;6.58;100.00;100509.69;5074235;28;20308;-76
2023/12/20 05:36:38;;;;;;;3.37;3.07;;;;;;;6.54;100.00;100509.66;5077093;28;20189;-78
2023/12/20 05:39:04;;;;;;;3.43;3.17;;;;;;;6.53;100.00;100519.94;5077454;28;20229;-77
2023/12/20 05:41:30;;;;;;;3.13;2.93;;;;;;;6.54;100.00;100514.81;5075424;28;20173;-77
2023/12/20 05:43:57;;;;;;;3.63;3.27;;;;;;;6.60;100.00;100526.84;5072024;28;20191;-76
2023/12/20 05:46:23;;;;;;;3.63;3.33;;;;;;;6.58;100.00;100522.56;5074447;28;20183;-74
2023/12/20 05:48:49;;;;;;;3.20;3.00;;;;;;;6.57;100.00;100529.41;5073931;28;20683;-77
2023/12/20 05:51:14;;;;;;;3.30;3.10;;;;;;;6.53;100.00;100525.94;5075092;28;20205;-77
2023/12/20 05:53:39;;;;;;;4.27;3.27;;;;;;;6.54;100.00;100531.94;5072568;28;20265;-77
2023/12/20 05:56:05;;;;;;;3.63;3.33;;;;;;;6.58;100.00;100523.41;5074644;28;20573;-77
2023/12/20 05:58:32;;;;;;;3.53;3.23;;;;;;;6.58;100.00;100518.25;5072391;28;20211;-77
2023/12/20 06:00:57;;;;;;;3.70;3.40;;;;;;;6.58;100.00;100523.41;5077178;28;20696;-77
2023/12/20 06:03:23;;;;;;;3.60;3.30;;;;;;;6.54;100.00;100527.66;5079962;28;20199;-77
2023/12/20 06:05:48;;;;;;;3.97;3.57;;;;;;;6.57;100.00;100532.00;5074794;28;20193;-77
2023/12/20 06:08:14;;;;;;;4.57;3.80;;;;;;;6.58;100.00;100543.13;5074893;28;20211;-77
2023/12/20 06:10:40;;;;;;;4.00;3.57;;;;;;;6.54;100.00;100548.22;5073612;28;20183;-77
2023/12/20 06:13:06;;;;;;;4.00;3.70;;;;;;;6.53;100.00;100550.78;5074852;28;20183;-77
2023/12/20 06:15:32;;;;;;;3.80;3.50;;;;;;;6.52;100.00;100561.91;5086367;28;20183;-77
2023/12/20 06:17:57;;;;;;;3.43;3.23;;;;;;;6.50;100.00;100564.50;5072928;28;20227;-77
2023/12/20 06:20:22;;;;;;;3.20;2.90;;;;;;;6.48;100.00;100567.88;5077940;28;20203;-78
2023/12/20 06:22:48;;;;;;;3.60;3.30;;;;;;;6.48;100.00;100576.47;5075896;28;20570;-76
2023/12/20 06:25:13;;;;;;;3.50;3.20;;;;;;;6.49;100.00;100574.72;5077034;28;20181;-77
2023/12/20 06:27:39;;;;;;;2.87;2.67;;;;;;;6.48;100.00;100581.59;5075185;28;20788;-77
2023/12/20 06:30:05;;;;;;;3.37;3.07;;;;;;;6.52;100.00;100578.19;5075435;28;20778;-77
2023/12/20 06:32:30;;;;;;;3.10;2.90;;;;;;;6.50;100.00;100584.19;5076552;28;20284;-77
2023/12/20 06:34:56;;;;;;;4.03;3.53;;;;;;;6.50;100.00;100582.47;5080164;28;20220;-77
2023/12/20 06:37:21;;;;;;;3.10;2.90;;;;;;;6.45;100.00;100588.38;5073679;28;20271;-77
2023/12/20 06:39:46;;;;;;;4.23;3.37;;;;;;;6.44;100.00;100589.22;5082370;28;20266;-78
2023/12/20 06:42:13;;;;;;;3.50;3.20;;;;;;;6.46;100.00;100591.00;5074450;28;20283;-77
2023/12/20 06:44:38;;;;;;;3.83;3.53;;;;;;;6.49;100.00;100592.72;5075915;28;20215;-77
2023/12/20 06:47:04;;;;;;;3.20;3.00;;;;;;;6.50;100.00;100591.88;5078034;28;20192;-77
2023/12/20 06:49:29;;;;;;;3.93;3.63;;;;;;;6.52;100.00;100590.22;5076496;28;20773;-76
2023/12/20 06:51:55;;;;;;;3.67;3.37;;;;;;;6.48;100.00;100580.72;5073234;28;20209;-77
2023/12/20 06:54:20;;;;;;;3.20;3.00;;;;;;;6.46;100.00;100584.97;5077089;28;20192;-77
2023/12/20 06:56:45;;;;;;;3.47;3.17;;;;;;;6.46;100.00;100601.28;5077542;28;20948;-77
2023/12/20 06:59:11;;;;;;;3.37;3.10;;;;;;;6.49;100.00;100601.31;5075629;28;20208;-76
2023/12/20 07:01:36;;;;;;;3.77;3.47;;;;;;;6.50;100.00;100617.59;5074843;28;20228;-77
2023/12/20 07:04:01;;;;;;;3.70;3.30;;;;;;;6.49;100.00;100624.47;5076894;28;20193;-77
2023/12/20 07:06:27;;;;;;;3.80;3.50;;;;;;;6.45;100.00;100629.53;5077328;28;20291;-75
2023/12/20 07:08:52;;;;;;;3.60;3.30;;;;;;;6.44;100.00;100636.38;5079239;28;20299;-76
2023/12/20 07:11:17;;;;;;;3.47;3.17;;;;;;;6.40;100.00;100635.50;5080064;28;20228;-76
2023/12/20 07:13:43;;;;;;;3.73;3.33;;;;;;;6.34;100.00;100645.66;5081324;28;20193;-76
2023/12/20 07:16:08;;;;;;;3.60;3.30;;;;;;;6.27;100.00;100649.00;5085113;28;20186;-77
2023/12/20 07:18:33;;;;;;;3.80;3.37;;;;;;;6.17;100.00;100657.41;5077163;28;21291;-76
2023/12/20 07:20:59;;;;;;;3.60;3.30;;;;;;;6.08;100.00;100650.41;5080611;28;20232;-77
2023/12/20 07:23:25;;;;;;;2.90;2.70;;;;;;;5.99;100.00;100651.09;5083814;28;20213;-77
2023/12/20 07:25:51;;;;;;;4.40;4.00;;;;;;;5.89;100.00;100652.69;5083143;28;20187;-77
2023/12/20 07:28:16;;;;;;;4.50;4.10;;;;;;;5.80;100.00;100653.41;5072685;28;20210;-77
2023/12/20 07:30:41;;;;;;;4.07;3.67;;;;;;;5.73;100.00;100658.41;5079230;28;20225;-77
2023/12/20 07:33:08;;;;;;;3.93;3.57;;;;;;;5.63;100.00;100660.81;5077251;28;20189;-77
2023/12/20 07:35:34;;;;;;;4.37;3.97;;;;;;;5.57;100.00;100657.25;5082008;28;20178;-77
2023/12/20 07:37:59;;;;;;;3.87;3.57;;;;;;;5.49;100.00;100663.16;5079992;28;20218;-77
2023/12/20 07:40:25;;;;;;;3.80;3.50;;;;;;;5.45;100.00;100666.47;5077644;28;20681;-76
2023/12/20 07:42:50;;;;;;;4.03;3.73;;;;;;;5.39;100.00;100674.06;5083251;28;20975;-77
2023/12/20 07:45:15;;;;;;;3.73;3.43;;;;;;;5.36;100.00;100673.16;5080765;28;20543;-77
2023/12/20 07:47:41;;;;;;;3.97;3.67;;;;;;;5.34;100.00;100675.69;5080867;28;20297;-77
2023/12/20 07:50:06;;;;;;;4.00;3.70;;;;;;;5.31;100.00;100680.78;5078149;28;20193;-77
2023/12/20 07:52:32;;;;;;;4.80;4.40;;;;;;;5.26;100.00;100673.00;5074680;28;20245;-77
2023/12/20 07:54:57;;;;;;;4.67;4.27;;;;;;;5.24;100.00;100684.91;5078131;28;20223;-77
2023/12/20 07:57:23;;;;;;;4.00;3.70;;;;;;;5.21;100.00;100687.41;5077261;28;20262;-77
2023/12/20 07:59:48;;;;;;;4.23;3.83;;;;;;;5.18;100.00;100690.81;5075387;28;20594;-76
2023/12/20 08:02:14;;;;;;;4.23;3.83;;;;;;;5.17;100.00;100693.31;5078975;28;20177;-76
2023/12/20 08:04:39;;;;;;;5.03;4.57;;;;;;;5.16;100.00;100705.28;5078476;28;20260;-77
2023/12/20 08:07:04;;;;;;;3.90;3.60;;;;;;;5.16;100.00;100707.88;5077881;28;20305;-77
2023/12/20 08:09:30;;;;;;;4.63;4.23;;;;;;;5.19;100.00;100709.63;5081866;28;20183;-78
2023/12/20 08:11:55;;;;;;;4.50;4.10;;;;;;;5.22;100.00;100707.13;5075578;28;20592;-78
2023/12/20 08:14:21;;;;;;;4.70;4.30;;;;;;;5.26;100.00;100714.03;5082719;28;20186;-77
2023/12/20 08:16:46;;;;;;;5.90;4.27;;;;;;;5.31;100.00;100717.56;5078184;28;20185;-78
2023/12/20 08:19:12;;;;;;;5.13;4.60;;;;;;;5.30;100.00;100709.84;5081457;28;20210;-78
2023/12/20 08:21:37;;;;;;;4.70;4.30;;;;;;;5.28;100.00;100720.09;5064503;28;20181;-77
2023/12/20 08:24:03;;;;;;;5.87;5.20;;;;;;;5.28;100.00;100716.63;5076075;28;20742;-76
2023/12/20 08:26:28;;;;;;;6.63;4.50;;;;;;;5.27;100.00;100712.34;5081273;28;20192;-76
2023/12/20 08:28:54;;;;;;;5.23;4.53;;;;;;;5.31;100.00;100722.69;5071590;28;20205;-78
2023/12/20 08:31:19;;;;;;;4.87;4.20;;;;;;;5.36;100.00;100719.34;5063492;28;20213;-78
2023/12/20 08:33:45;;;;;;;5.27;4.77;;;;;;;5.40;100.00;100716.88;5063921;28;20182;-75
2023/12/20 08:36:11;;;;;;;5.43;4.10;;;;;;;5.45;100.00;100719.50;5062007;28;20181;-77
2023/12/20 08:38:37;;;;;;;5.40;4.17;;;;;;;5.42;100.00;100722.91;5073663;28;20202;-77
2023/12/20 08:41:04;;;;;;;4.33;4.00;;;;;;;5.42;100.00;100728.03;5077222;28;20195;-76
2023/12/20 08:43:30;;;;;;;4.83;4.43;;;;;;;5.44;100.00;100728.94;5077786;28;20210;-78
2023/12/20 08:45:55;;;;;;;4.83;4.33;;;;;;;5.44;100.00;100738.34;5078475;28;20213;-78
2023/12/20 08:48:21;;;;;;;5.03;4.50;;;;;;;5.43;100.00;100740.03;5077865;28;20266;-77
2023/12/20 08:50:48;;;;;;;4.57;4.20;;;;;;;5.45;100.00;100738.38;5078987;28;20597;-77
2023/12/20 08:53:15;;;;;;;4.47;4.07;;;;;;;5.46;100.00;100732.41;5075233;28;20429;-77
2023/12/20 08:55:41;;;;;;;5.53;4.57;;;;;;;5.59;100.00;100737.75;5078309;28;20186;-78
2023/12/20 08:58:07;;;;;;;4.43;4.03;;;;;;;5.65;100.00;100738.72;5079999;28;20607;-77
2023/12/20 09:00:33;;;;;;;3.80;3.47;;;;;;;5.69;100.00;100734.50;5086446;28;20234;-78
2023/12/20 09:02:59;;;;;;;3.73;3.20;;;;;;;5.75;100.00;100731.19;5076418;28;20178;-77
2023/12/20 09:05:24;;;;;;;4.57;3.20;;;;;;;5.90;100.00;100722.91;5079859;28;20195;-78
2023/12/20 09:07:50;;;;;;;4.03;2.90;;;;;;;6.03;100.00;100730.00;5071215;28;20219;-78
2023/12/20 09:10:15;;;;;;;4.10;2.93;;;;;;;6.10;100.00;100733.53;5066994;28;20186;-77
2023/12/20 09:12:42;;;;;;;3.17;2.87;;;;;;;6.19;100.00;100737.97;5067493;28;20199;-77
2023/12/20 09:15:08;;;;;;;3.57;2.40;;;;;;;6.32;100.00;100731.31;5062659;28;20182;-78
2023/12/20 09:17:33;;;;;;;3.53;2.70;;;;;;;6.37;100.00;100721.97;5062732;28;20255;-77
2023/12/20 09:19:59;;;;;;;3.83;3.00;;;;;;;6.42;100.00;100719.50;5062504;28;20247;-76
2023/12/20 09:22:25;;;;;;;5.67;3.00;;;;;;;6.48;100.00;100717.00;5063881;28;20214;-77
2023/12/20 09:24:50;;;;;;;3.60;2.33;;;;;;;6.55;100.00;100711.97;5060707;28;20908;-77
2023/12/20 09:27:16;;;;;;;2.77;2.40;;;;;;;6.64;100.00;100711.22;5064762;28;20215;-77
2023/12/20 09:29:41;;;;;;;4.67;2.63;;;;;;;6.72;100.00;100711.34;5062286;28;20201;-76
2023/12/20 09:32:06;;;;;;;3.40;2.00;;;;;;;6.80;100.00;100712.31;5061870;28;20208;-78
2023/12/20 09:34:32;;;;;;;5.47;2.60;;;;;;;6.92;100.00;100721.03;5064316;28;20191;-77
2023/12/20 09:36:57;;;;;;;4.73;2.00;;;;;;;6.96;100.00;100717.63;5062979;28;20206;-77
2023/12/20 09:39:23;;;;;;;3.40;2.17;;;;;;;7.05;100.00;100716.88;5071334;28;20738;-77
2023/12/20 09:42:04;;;;;;;3.00;2.40;;;;;;;7.15;100.00;100718.75;5071820;28;20195;-76
2023/12/20 09:44:31;;;;;;;2.87;2.07;;;;;;;7.23;100.00;100724.84;5074613;28;20267;-78
2023/12/20 09:46:57;;;;;;;5.20;2.47;;;;;;;7.26;100.00;100718.88;5077671;28;20271;-78
2023/12/20 09:49:22;;;;;;;2.80;2.40;;;;;;;7.30;100.00;100736.94;5078675;28;20386;-77
2023/12/20 09:51:50;;;;;;;4.83;2.50;;;;;;;7.35;100.00;100731.84;5065442;28;20219;-76
2023/12/20 09:54:20;;;;;;;4.20;2.30;;;;;;;7.38;100.00;100734.47;5065462;28;20187;-77
2023/12/20 09:56:45;;;;;;;3.90;2.60;;;;;;;7.42;100.00;100733.63;5075155;28;20189;-77
2023/12/20 09:59:11;;;;;;;5.13;2.30;;;;;;;7.45;100.00;100731.09;5074948;28;20209;-77
2023/12/20 10:01:39;;;;;;;3.13;2.30;;;;;;;7.47;100.00;100729.41;5070095;28;20186;-77
2023/12/20 10:04:12;;;;;;;3.23;2.40;;;;;;;7.50;100.00;100720.84;5077058;28;20942;-76
2023/12/20 10:06:44;;;;;;;4.67;2.63;;;;;;;7.54;100.00;100730.34;5076930;28;20199;-78
2023/12/20 10:09:11;;;;;;;3.10;2.20;;;;;;;7.59;100.00;100727.81;5086103;28;20724;-78
2023/12/20 10:11:37;;;;;;;3.10;2.60;;;;;;;7.64;100.00;100726.16;5086547;28;20235;-77
2023/12/20 10:14:03;;;;;;;3.97;2.40;;;;;;;7.72;100.00;100718.50;5081720;28;20200;-76
2023/12/20 10:16:29;;;;;;;4.80;2.90;;;;;;;7.76;100.00;100722.84;5083736;28;20189;-76
2023/12/20 10:18:56;;;;;;;4.03;2.37;;;;;;;7.78;100.00;100710.84;5081706;28;20225;-77
2023/12/20 10:21:22;;;;;;;4.10;2.60;;;;;;;7.80;100.00;100718.56;5079828;28;20222;-76
2023/12/20 10:23:50;;;;;;;3.73;2.47;;;;;;;7.77;100.00;100714.25;5080175;28;20199;-77
2023/12/20 10:26:25;;;;;;;2.93;2.40;;;;;;;7.77;100.00;100704.81;5082711;28;20301;-78
2023/12/20 10:28:55;;;;;;;5.03;2.47;;;;;;;7.79;100.00;100704.81;5083478;28;20216;-77
2023/12/20 10:31:28;;;;;;;4.33;2.73;;;;;;;7.80;100.00;100697.97;5082652;28;20212;-76
2023/12/20 10:33:53;;;;;;;3.43;2.30;;;;;;;7.79;100.00;100704.81;5082567;28;20231;-77
2023/12/20 10:36:18;;;;;;;3.83;2.67;;;;;;;7.84;100.00;100698.00;5080189;28;20196;-76
2023/12/20 10:38:44;;;;;;;4.13;2.70;;;;;;;7.87;100.00;100703.19;5082469;28;20309;-76
2023/12/20 10:41:11;;;;;;;3.97;2.23;;;;;;;7.88;100.00;100707.50;5080812;28;20200;-78
2023/12/20 10:43:37;;;;;;;4.40;2.30;;;;;;;7.87;100.00;100703.19;5082869;28;20196;-78
2023/12/20 10:46:03;;;;;;;5.30;2.70;;;;;;;7.91;100.00;100702.38;5078247;28;20189;-78
2023/12/20 10:48:31;;;;;;;3.20;2.23;;;;;;;7.94;100.00;100693.78;5080360;28;20742;-77
2023/12/20 10:50:57;;;;;;;4.50;2.10;;;;;;;7.93;100.00;100679.16;5084726;28;20222;-77
2023/12/20 10:53:24;;;;;;;5.93;3.20;;;;;;;7.91;100.00;100681.75;5083522;28;20190;-76
2023/12/20 10:55:55;;;;;;;4.13;2.53;;;;;;;7.93;100.00;100677.47;5081532;28;20185;-77
2023/12/20 10:58:22;;;;;;;3.97;2.40;;;;;;;8.02;100.00;100670.66;5080856;28;20428;-78
2023/12/20 11:00:53;;;;;;;3.40;2.07;;;;;;;8.10;100.00;100666.41;5081627;28;20445;-78
2023/12/20 11:03:19;;;;;;;3.80;2.50;;;;;;;8.08;100.00;100662.97;5083244;28;20197;-78
2023/12/20 11:06:02;;;;;;;5.87;2.63;;;;;;;8.16;100.00;100671.63;5080297;28;20908;-76
2023/12/20 11:08:36;;;;;;;3.80;2.43;;;;;;;8.22;100.00;100665.63;5082078;28;20239;-76
2023/12/20 11:11:01;;;;;;;3.03;1.87;;;;;;;8.24;100.00;100658.78;5082019;28;20208;-77
2023/12/20 11:13:39;;;;;;;5.30;2.50;;;;;;;8.22;100.00;100658.78;5081606;28;20213;-78
2023/12/20 11:16:05;;;;;;;4.27;2.20;;;;;;;8.24;100.00;100651.03;5080331;28;20196;-77
2023/12/20 11:18:31;;;;;;;3.73;2.40;;;;;;;8.30;100.00;100656.25;5079449;28;20223;-77